GBYD/BJL METAR and TAF weather

Enter ICAO airport designator
Station Type Date Time Source
GBYD METAR 2018/01/23 01:00 UTC NOAA

GBYD 230100Z 35005KT 7000 NSC 22/11 Q1011


Station Type Date Time Source
GBYD Decoded METAR 2018/01/23 01:00 UTC NOAA

Banjul / Yundum, Gambia, The (GBYD) 13-21N 016-48W 36M
Jan 22, 2018 - 08:00 PM EST / 2018.01.23 0100 UTC
Wind: from the N (350 degrees) at 6 MPH (5 KT):0
Visibility: 4 mile(s):0
Temperature: 71 F (22 C)
Dew Point: 51 F (11 C)
Relative Humidity: 49%
Pressure (altimeter): 29.85 in. Hg (1011 hPa)
ob: GBYD 230100Z 35005KT 7000 NSC 22/11 Q1011
cycle: 1

Station Type Date Time Source
GBYD TAF 2018/01/22 18:24 UTC NOAA

TAF TAF GBYD 221730Z 2218/2324 02009KT 7000 NSC


Example: see airport list